METAR Formatted Surface Weather Observation
Issued by NWS

Home | Current Version | Previous Version | Text Only | Print | Product List | Glossary On
Versions: 1 2 3 4 5 6 7 8 9 10 11 12 13 14 15 16
000
SAUS44 KMOB 102100
MTRNSE
METAR KNSE 102056Z 24005KT 10SM FEW006 BKN110 BKN250 23/20 A3000 RMK
AO2 SLP145 T2 SET 6//// T02280200 55022 PNO $


USA.gov is the U.S. government's official web portal to all federal, state and local government web resources and services.